• Join FlightAware (Why Join?)
  • Login
  • US Flag 
08:56PM EDT


 

Airport Tracker/Info


-or-


 

Live Flight TrackerFlight Track Log ✈ N789EX ✈ 21-Jun-2014 ✈ KMWH - KBFI

Flight Track Log - Related Links

Times and Time Zones

All times are in EDT time to prevent confusion due to time zone crossing. See the N789EX flight status page for this flight to view local times or setup timezone preferences in your user account.

Time Position Orientation Groundspeed Altitude Reporting Facility
EDT Latitude Longitude Course Direction KTS MPH feet Rate Location/Type
04:54PM 47.4017 -118.8894 356° North 275 316 9,800  Level Seattle Center
04:55PM 47.4022 -119.0281 270° West 332 382 12,600 2,880 Climbing Seattle Center
04:56PM 47.3925 -119.1831 265° West 382 440 15,700 1,620 Climbing Seattle Center
04:57PM 47.3828 -119.3450 265° West 396 456 15,900 120 Climbing Seattle Center
04:58PM 47.3478 -119.5083 253° West 396 456 16,000  Climbing Seattle Center
05:04PM 47.0332 -120.3640 241° Southwest 390 449 15,900 -60 Descending FlightAware ADS-B
05:05PM 47.0071 -120.4340 241° Southwest 389 448 15,900  Level FlightAware ADS-B
05:05PM 46.9750 -120.5200 241° Southwest 387 445 15,900  Level FlightAware ADS-B
05:06PM 46.9424 -120.6070 241° Southwest 387 445 15,900  Level FlightAware ADS-B
05:07PM 46.8986 -120.7230 241° Southwest 386 444 15,900  Level FlightAware ADS-B
05:07PM 46.8719 -120.7930 241° Southwest 388 447 15,900  Level FlightAware ADS-B
05:08PM 46.8456 -120.8630 241° Southwest 387 445 15,900  Level FlightAware ADS-B
05:08PM 46.8327 -120.9010 249° West 387 445 15,900  Level FlightAware ADS-B
05:08PM 46.8290 -120.9220 261° West 390 449 15,900  Level FlightAware ADS-B
05:08PM 46.8280 -120.9330 261° West 390 449 15,900  Level FlightAware ADS-B
05:09PM 46.8288 -120.9660 270° West 393 452 15,900  Level FlightAware ADS-B
05:09PM 46.8302 -120.9770 281° West 396 456 15,900  Level FlightAware ADS-B
05:09PM 46.8333 -120.9920 289° West 398 458 15,900  Level FlightAware ADS-B
05:09PM 46.8359 -121.0010 293° West 399 459 15,900  Level FlightAware ADS-B
05:09PM 46.8442 -121.0220 302° West 400 460 15,900 -180 Level FlightAware ADS-B
05:09PM 46.8757 -121.0890 304° West 394 453 15,800 -900 Descending FlightAware ADS-B
05:10PM 46.9061 -121.1540 304° West 379 436 15,000 -1,920 Descending FlightAware ADS-B
05:10PM 46.9356 -121.2180 305° West 371 427 13,900 -2,220 Descending FlightAware ADS-B
05:11PM 46.9650 -121.2800 304° West 368 423 12,800 -2,220 Descending FlightAware ADS-B
05:11PM 46.9941 -121.3420 304° West 362 417 11,700 -1,380 Descending FlightAware ADS-B
05:12PM 47.0214 -121.4010 304° West 336 387 11,400 -600 Descending FlightAware ADS-B
05:12PM 47.0467 -121.4560 304° West 311 358 11,100 -480 Descending FlightAware ADS-B
05:13PM 47.0737 -121.5140 304° West 293 337 10,900 -300 Descending FlightAware ADS-B
05:14PM 47.0953 -121.5620 304° West 293 337 10,800 -120 Descending FlightAware ADS-B
05:14PM 47.1181 -121.6110 304° West 291 335 10,800 -300 Level FlightAware ADS-B
05:14PM 47.1313 -121.6398 304° West 284 327 10,600 -960 Descending FlightAware ADS-B (KPAE)
05:14PM 47.1364 -121.6510 304° West 280 322 10,400 -1,920 Descending FlightAware ADS-B
05:15PM 47.1470 -121.6740 304° West 275 316 9,900 -2,160 Descending FlightAware ADS-B
05:15PM 47.1560 -121.6940 304° West 274 315 9,400 -2,160 Descending FlightAware ADS-B
05:15PM 47.1550 -121.6918 304° West 274 315 9,400 -2,400 Level FlightAware ADS-B (KPAE)
05:15PM 47.1669 -121.7170 304° West 274 315 8,800 -2,700 Descending FlightAware ADS-B
05:15PM 47.1707 -121.7256 304° West 274 315 8,500 -2,400 Descending FlightAware ADS-B (KPAE)
05:15PM 47.1779 -121.7410 304° West 276 318 8,200 -1,440 Descending FlightAware ADS-B
05:16PM 47.1824 -121.7506 304° West 275 316 8,000 -1,200 Descending FlightAware ADS-B (KPAE)
05:16PM 47.1888 -121.7650 304° West 275 316 7,900 -960 Descending FlightAware ADS-B
05:16PM 47.1994 -121.7880 304° West 268 308 7,700 -900 Descending FlightAware ADS-B
05:16PM 47.2019 -121.7940 301° West 265 305 7,600 -780 Descending FlightAware ADS-B
05:16PM 47.2042 -121.8000 297° West 263 303 7,600  Level FlightAware ADS-B
05:16PM 47.2058 -121.8050 292° West 260 299 7,600  Level FlightAware ADS-B
05:16PM 47.2069 -121.8100 287° West 257 296 7,600 -1,500 Level FlightAware ADS-B
05:16PM 47.2069 -121.8104 285° West 256 295 7,500 -1,500 Descending FlightAware ADS-B (KPAE)
05:16PM 47.2078 -121.8170 280° West 253 291 7,500  Level FlightAware ADS-B
05:16PM 47.2081 -121.8230 274° West 251 289 7,500  Level FlightAware ADS-B
05:16PM 47.2080 -121.8280 268° West 248 285 7,500 -900 Level FlightAware ADS-B
05:16PM 47.2075 -121.8330 262° West 246 283 7,400 -1,020 Descending FlightAware ADS-B
05:16PM 47.2066 -121.8390 256° West 244 281 7,400 -780 Level FlightAware ADS-B
05:17PM 47.2049 -121.8470 251° West 242 278 7,300 -1,020 Descending FlightAware ADS-B
05:17PM 47.2049 -121.8465 250° West 241 277 7,300 -720 Level FlightAware ADS-B (KPAE)
05:17PM 47.2012 -121.8600 248° West 239 275 7,200 -720 Descending FlightAware ADS-B
05:17PM 47.1987 -121.8691 247° West 234 269 7,100 -420 Descending FlightAware ADS-B (KPAE)
05:17PM 47.1949 -121.8820 247° West 233 268 7,100 -720 Level FlightAware ADS-B
05:17PM 47.1905 -121.8970 248° West 228 262 6,900 -900 Descending FlightAware ADS-B
05:17PM 47.1892 -121.9030 251° West 228 262 6,900 -1,020 Level FlightAware ADS-B
05:17PM 47.1883 -121.9070 255° West 227 261 6,800 -1,740 Descending FlightAware ADS-B
05:17PM 47.1877 -121.9130 262° West 226 260 6,700 -780 Descending FlightAware ADS-B
05:17PM 47.1874 -121.9190 267° West 226 260 6,700 -780 Level FlightAware ADS-B
05:17PM 47.1874 -121.9250 271° West 226 260 6,600 -1,380 Descending FlightAware ADS-B
05:17PM 47.1877 -121.9330 274° West 226 260 6,500 -1,440 Descending FlightAware ADS-B
05:18PM 47.1888 -121.9510 276° West 228 262 6,200 -1,620 Descending FlightAware ADS-B
05:18PM 47.1892 -121.9556 277° West 229 264 6,100 -1,320 Descending FlightAware ADS-B (KPAE)
05:18PM 47.1906 -121.9730 278° West 230 265 5,900 -1,620 Descending FlightAware ADS-B
05:18PM 47.1914 -121.9790 281° West 231 266 5,700 -1,740 Descending FlightAware ADS-B
05:18PM 47.1921 -121.9840 284° West 232 267 5,700 -1,020 Level FlightAware ADS-B
05:18PM 47.1931 -121.9880 287° West 232 267 5,600 -1,500 Descending FlightAware ADS-B
05:18PM 47.1948 -121.9960 290° West 233 268 5,500 -1,440 Descending FlightAware ADS-B
05:18PM 47.1981 -122.0070 293° West 232 267 5,300 -1,320 Descending FlightAware ADS-B
05:18PM 47.2009 -122.0160 296° West 231 266 5,200 -1,200 Descending FlightAware ADS-B
05:18PM 47.2030 -122.0220 298° West 231 266 5,100 -780 Descending FlightAware ADS-B
05:19PM 47.2053 -122.0270 303° West 229 264 5,100 -780 Level FlightAware ADS-B
05:19PM 47.2076 -122.0320 310° West 228 262 5,000 -1,500 Descending FlightAware ADS-B
05:19PM 47.2106 -122.0360 318° Northwest 226 260 4,900 -780 Descending FlightAware ADS-B
05:19PM 47.2140 -122.0390 325° Northwest 225 259 4,900 -600 Level FlightAware ADS-B
05:19PM 47.2192 -122.0440 331° Northwest 224 258 4,800 -1,200 Descending FlightAware ADS-B
05:19PM 47.2323 -122.0540 334° Northwest 223 257 4,500 -960 Descending FlightAware ADS-B
05:19PM 47.2422 -122.0610 332° Northwest 214 246 4,400 -360 Descending FlightAware ADS-B
05:19PM 47.2490 -122.0670 331° Northwest 209 241 4,400 -420 Level FlightAware ADS-B
05:20PM 47.2470 -122.0649 329° Northwest 204 235 4,300 -960 Descending FlightAware ADS-B (KPAE)
05:20PM 47.2597 -122.0760 329° Northwest 201 231 4,200 -1,080 Descending FlightAware ADS-B
05:20PM 47.2692 -122.0840 331° Northwest 197 227 4,000 -720 Descending FlightAware ADS-B
05:20PM 47.2809 -122.0930 331° Northwest 188 216 3,900 -480 Descending FlightAware ADS-B
05:20PM 47.2904 -122.1010 330° Northwest 180 207 3,800 -780 Descending FlightAware ADS-B
05:20PM 47.2984 -122.1080 331° Northwest 176 203 3,600 -960 Descending FlightAware ADS-B
05:21PM 47.3088 -122.1160 331° Northwest 173 199 3,400 -960 Descending FlightAware ADS-B
05:21PM 47.3157 -122.1220 331° Northwest 174 200 3,200 -960 Descending FlightAware ADS-B
05:21PM 47.3263 -122.1310 330° Northwest 172 198 3,000 -1,020 Descending FlightAware ADS-B
05:21PM 47.3369 -122.1400 330° Northwest 172 198 2,700 -1,020 Descending FlightAware ADS-B
05:22PM 47.3474 -122.1490 330° Northwest 172 198 2,500 -960 Descending FlightAware ADS-B
05:22PM 47.3544 -122.1540 331° Northwest 173 199 2,300 -1,140 Descending FlightAware ADS-B
05:22PM 47.3661 -122.1640 330° Northwest 169 194 2,000 -840 Descending FlightAware ADS-B
05:22PM 47.3743 -122.1710 330° Northwest 169 194 1,900 -360 Descending FlightAware ADS-B
05:22PM 47.3791 -122.1750 330° Northwest 170 196 1,900 -300 Level FlightAware ADS-B
05:23PM 47.3897 -122.1840 330° Northwest 168 193 1,800 -300 Descending FlightAware ADS-B
05:23PM 47.3945 -122.1880 330° Northwest 168 193 1,800  Level FlightAware ADS-B
05:23PM 47.3980 -122.1910 329° Northwest 166 191 1,800  Level FlightAware ADS-B
05:23PM 47.4045 -122.1970 329° Northwest 169 194 1,800  Level FlightAware ADS-B
05:23PM 47.4136 -122.2050 330° Northwest 170 196 1,800  Level FlightAware ADS-B
05:23PM 47.4191 -122.2100 332° Northwest 169 194 1,800 300 Level FlightAware ADS-B
05:24PM 47.4268 -122.2160 331° Northwest 158 182 1,900  Climbing FlightAware ADS-B
05:24PM 47.4309 -122.2190 331° Northwest 154 177 1,800 -420 Descending FlightAware ADS-B
05:24PM 47.4362 -122.2230 331° Northwest 152 175 1,800 -360 Level FlightAware ADS-B
05:24PM 47.4423 -122.2280 330° Northwest 148 170 1,700 -960 Descending FlightAware ADS-B
05:24PM 47.4440 -122.2298 330° Northwest 150 173 1,600 -1,020 Descending FlightAware ADS-B (KPAE)
05:24PM 47.4493 -122.2340 330° Northwest 143 165 1,500 -720 Descending FlightAware ADS-B
05:24PM 47.4538 -122.2380 330° Northwest 139 160 1,400 -780 Descending FlightAware ADS-B
05:24PM 47.4583 -122.2420 330° Northwest 137 158 1,300 -840 Descending FlightAware ADS-B
05:25PM 47.4665 -122.2490 331° Northwest 132 152 1,100 -780 Descending FlightAware ADS-B
05:25PM 47.4710 -122.2530 330° Northwest 133 153 1,000 -600 Descending FlightAware ADS-B
05:25PM 47.4825 -122.2620 331° Northwest 132 152 800 -480 Descending FlightAware ADS-B
05:26PM 47.5092 -122.2861 331° Northwest 130 150 400 -540 Descending Seattle Center
05:27PM 47.5233 -122.2964 334° Northwest 133 153 100 -660 Descending Seattle Center
05:29PM 47.5167 -122.3000 326° Northwest  Level FlightAware Approximate